»·PEaware :: JUS326 KRNO-KFAT

JUS326 :: KRNO-KFAT

FLIGHT INFORMATION

Flight Status: Arrived
Operator:
USA Jet
More flights by this operator :: More flights under this callsign
Pilot: Erik S. (3779)
Aircraft: BOEING 737-300
(B733)
More flights by this aircraft type
Origin: KRNO Reno/Tahoe Intl
United States
Destination: KFAT Fresno Yosemite Intl
United States
More flights between these airports :: More routes between these airports
Route: +RENO9 CZQ
File this flight plan on PilotEdge
Remarks:
Altitude:
(Current/Filed)
19,000ft
Speed:
(Current/Filed)
400kts
Departed: 23-Jan-18 08:15 AM
Arrived: 23-Jan-18 08:53 AM
Distance/Time
Traveled:
163nm/0:37
Distance/Time
To Go:
Arrived

Flight Plot

Page will automatically refresh every two minutes.

Flight plan parsing failed; only flown route is shown


Map Options




Map Legend


Flown Route
Filed Route
Departure Airport
Arrival Airport
Navaid (VOR, NDB)
Fix

Horizontal Profiles

Position Reports

Time Latitude Longitude Heading Altitude Ground
Speed
23-Jan-18 08:09 39.509642 -119.772929 330 4422ft 0kts
23-Jan-18 08:10 39.509642 -119.772929 330 4422ft 0kts
23-Jan-18 08:11 39.509642 -119.772929 330 4422ft 0kts
23-Jan-18 08:12 39.509642 -119.772929 330 4422ft 0kts
23-Jan-18 08:13 39.509642 -119.772929 330 4422ft 0kts
23-Jan-18 08:14 39.509642 -119.772929 330 4422ft 0kts
23-Jan-18 08:15 39.509642 -119.772929 330 4422ft 0kts
23-Jan-18 08:16 39.509642 -119.772929 330 4422ft 0kts
23-Jan-18 08:17 39.509558 -119.772863 327 4422ft 0kts
23-Jan-18 08:18 39.509144 -119.772428 317 4422ft 0kts
23-Jan-18 08:19 39.509765 -119.771581 25 4422ft 12kts
23-Jan-18 08:20 39.513688 -119.769552 120 4422ft 19kts
23-Jan-18 08:21 39.485168 -119.768837 178 5478ft 176kts
23-Jan-18 08:22 39.431840 -119.764015 177 7931ft 224kts
23-Jan-18 08:23 39.364839 -119.756829 177 10407ft 267kts
23-Jan-18 08:24 39.285030 -119.747178 177 13146ft 302kts
23-Jan-18 08:25 39.191109 -119.743353 182 14925ft 358kts
23-Jan-18 08:26 39.090232 -119.746749 185 17532ft 372kts
23-Jan-18 08:27 38.984097 -119.750220 185 19275ft 403kts
23-Jan-18 08:28 38.867809 -119.753874 184 19339ft 424kts
23-Jan-18 08:29 38.751569 -119.757427 184 19340ft 424kts
23-Jan-18 08:30 38.633587 -119.761082 184 19326ft 425kts
23-Jan-18 08:31 38.515786 -119.764770 184 19303ft 425kts
23-Jan-18 08:32 38.398318 -119.768421 184 19294ft 424kts
23-Jan-18 08:33 38.280506 -119.772078 184 19303ft 425kts
23-Jan-18 08:34 38.162775 -119.775728 184 19303ft 425kts
23-Jan-18 08:35 38.044798 -119.779375 184 19306ft 425kts
23-Jan-18 08:36 37.926762 -119.783011 184 19325ft 426kts
23-Jan-18 08:37 37.808440 -119.786644 184 19335ft 427kts
23-Jan-18 08:38 37.689799 -119.790276 184 19339ft 427kts
23-Jan-18 08:39 37.571696 -119.793888 184 17746ft 421kts
23-Jan-18 08:40 37.459624 -119.797295 183 14492ft 393kts
23-Jan-18 08:41 37.354502 -119.800431 182 11650ft 363kts
23-Jan-18 08:42 37.262873 -119.803122 183 11367ft 297kts
23-Jan-18 08:43 37.185109 -119.782337 143 11337ft 299kts
23-Jan-18 08:44 37.120461 -119.718201 142 10291ft 293kts
23-Jan-18 08:45 37.057700 -119.657531 142 8462ft 282kts
23-Jan-18 08:46 36.995963 -119.601072 142 6696ft 270kts
23-Jan-18 08:47 36.939497 -119.549315 142 6008ft 226kts
23-Jan-18 08:48 36.889371 -119.503423 142 5083ft 218kts
23-Jan-18 08:49 36.841634 -119.459015 140 4979ft 208kts
23-Jan-18 08:50 36.796091 -119.416282 142 5100ft 206kts
23-Jan-18 08:51 36.743061 -119.401075 210 5012ft 221kts
23-Jan-18 08:52 36.691968 -119.443865 213 4363ft 224kts
23-Jan-18 08:53 36.675155 -119.506280 271 3540ft 187kts
23-Jan-18 08:54 36.687904 -119.566698 306 2501ft 160kts
23-Jan-18 08:55 36.712236 -119.605282 308 1887ft 134kts
23-Jan-18 08:56 36.733611 -119.642078 303 1560ft 129kts
23-Jan-18 08:57 36.754222 -119.677448 305 915ft 124kts
23-Jan-18 08:58 36.773428 -119.711586 305 341ft 94kts
23-Jan-18 08:59 36.779381 -119.722064 306 341ft 39kts
23-Jan-18 09:00 36.779708 -119.718992 127 341ft 27kts
23-Jan-18 09:01 36.779506 -119.715512 305 341ft 0kts
23-Jan-18 09:02 36.779506 -119.715512 305 341ft 0kts
23-Jan-18 09:03 36.779506 -119.715512 305 341ft 0kts
23-Jan-18 09:04 36.779506 -119.715512 305 341ft 0kts
23-Jan-18 09:05 36.779506 -119.715512 305 341ft 0kts
23-Jan-18 09:06 36.779506 -119.715512 305 341ft 0kts
23-Jan-18 09:07 36.779506 -119.715512 305 341ft 0kts
23-Jan-18 09:08 36.779506 -119.715512 305 341ft 0kts
23-Jan-18 09:09 36.779506 -119.715512 305 341ft 0kts
23-Jan-18 09:10 36.779506 -119.715512 305 341ft 0kts
23-Jan-18 09:11 36.779506 -119.715512 305 341ft 0kts
23-Jan-18 09:12 36.779506 -119.715512 305 341ft 0kts
23-Jan-18 09:13 36.779506 -119.715512 305 341ft 0kts
23-Jan-18 09:14 36.779506 -119.715512 305 341ft 0kts

Navigation Log

Ident Type
Flight plan parsing failed, navigation log unavailable